createdAt,value
2019-05-20T00:00:41.972Z,4.17
2019-05-20T00:03:10.426Z,3.57
2019-05-20T00:05:38.921Z,3.83
2019-05-20T00:08:07.345Z,3.60
2019-05-20T00:10:35.779Z,3.70
2019-05-20T00:13:04.257Z,3.37
2019-05-20T00:15:32.681Z,3.77
2019-05-20T00:18:01.100Z,4.07
2019-05-20T00:20:29.624Z,4.40
2019-05-20T00:22:58.064Z,3.97
2019-05-20T00:25:26.479Z,5.00
2019-05-20T00:27:54.910Z,4.40
2019-05-20T00:30:23.485Z,4.07
2019-05-20T00:32:51.958Z,5.33
2019-05-20T00:35:20.372Z,4.50
2019-05-20T00:37:48.863Z,4.73
2019-05-20T00:40:17.408Z,4.23
2019-05-20T00:42:45.859Z,4.33
2019-05-20T00:45:14.514Z,3.87
2019-05-20T00:47:42.932Z,3.90
2019-05-20T00:50:11.414Z,4.30
2019-05-20T00:52:39.911Z,4.47
2019-05-20T00:55:10.044Z,4.30
2019-05-20T00:57:38.729Z,4.70
2019-05-20T01:00:07.910Z,4.70
2019-05-20T01:02:36.313Z,4.40
2019-05-20T01:05:05.413Z,4.33
2019-05-20T01:07:33.876Z,4.37
2019-05-20T01:10:02.294Z,4.87
2019-05-20T01:12:30.724Z,4.30
2019-05-20T01:14:59.136Z,4.80
2019-05-20T01:17:27.685Z,4.40
2019-05-20T01:19:56.435Z,4.60
2019-05-20T01:22:24.983Z,5.20
2019-05-20T01:24:53.417Z,4.67
2019-05-20T01:27:21.844Z,4.47
2019-05-20T01:29:50.261Z,4.67
2019-05-20T01:32:18.706Z,4.80
2019-05-20T01:34:47.125Z,5.00
2019-05-20T01:37:15.559Z,4.87
2019-05-20T01:39:43.964Z,4.03
2019-05-20T01:42:12.396Z,5.00
2019-05-20T01:44:40.818Z,4.87
2019-05-20T01:47:09.226Z,4.83
2019-05-20T01:49:37.641Z,4.97
2019-05-20T01:52:07.021Z,5.13
2019-05-20T01:54:35.453Z,5.20
2019-05-20T01:57:03.901Z,5.50
2019-05-20T01:59:32.351Z,5.10
2019-05-20T02:02:00.765Z,4.90
2019-05-20T02:04:29.263Z,4.67
2019-05-20T02:06:57.665Z,5.00
2019-05-20T02:09:26.086Z,5.10
2019-05-20T02:11:54.505Z,5.47
2019-05-20T02:14:24.555Z,4.63
2019-05-20T02:16:52.973Z,4.77
2019-05-20T02:19:21.415Z,4.50
2019-05-20T02:21:49.839Z,5.47
2019-05-20T02:24:18.261Z,4.90
2019-05-20T02:26:46.712Z,4.23
2019-05-20T02:29:15.130Z,5.43
2019-05-20T02:31:43.543Z,4.63
2019-05-20T02:34:11.960Z,4.40
2019-05-20T02:36:40.428Z,5.03
2019-05-20T02:39:08.844Z,4.57
2019-05-20T02:41:37.406Z,4.20
2019-05-20T02:44:05.838Z,4.63
2019-05-20T02:46:34.243Z,5.37
2019-05-20T02:49:02.681Z,4.73
2019-05-20T02:51:31.313Z,5.33
2019-05-20T02:54:01.906Z,5.00
2019-05-20T02:56:31.209Z,5.07
2019-05-20T02:58:59.790Z,5.47
2019-05-20T03:01:28.220Z,5.83
2019-05-20T03:04:10.869Z,5.50
2019-05-20T03:06:26.799Z,5.43
2019-05-20T03:08:55.265Z,5.63
2019-05-20T03:11:23.682Z,5.27
2019-05-20T03:13:52.096Z,6.07
2019-05-20T03:16:20.511Z,6.00
2019-05-20T03:18:48.958Z,6.10
2019-05-20T03:21:17.423Z,5.60
2019-05-20T03:23:45.861Z,6.17
2019-05-20T03:26:14.278Z,5.50
2019-05-20T03:28:42.773Z,5.20
2019-05-20T03:31:11.353Z,5.97
2019-05-20T03:33:40.060Z,5.80
2019-05-20T03:36:08.692Z,5.80
2019-05-20T03:38:37.114Z,6.40
2019-05-20T03:41:05.657Z,5.20
2019-05-20T03:43:34.274Z,6.37
2019-05-20T03:46:02.688Z,5.33
2019-05-20T03:48:31.178Z,5.87
2019-05-20T03:50:59.581Z,6.40
2019-05-20T03:53:28.005Z,6.57
2019-05-20T03:55:56.427Z,7.23
2019-05-20T03:58:25.284Z,6.07
2019-05-20T04:00:53.731Z,7.00
2019-05-20T04:03:22.185Z,6.80
2019-05-20T04:05:50.666Z,5.80
2019-05-20T04:08:19.101Z,5.67
2019-05-20T04:10:47.604Z,5.97
2019-05-20T04:13:16.096Z,6.00
2019-05-20T04:15:44.602Z,6.27
2019-05-20T04:18:13.015Z,7.10
2019-05-20T04:20:41.443Z,6.37
2019-05-20T04:23:09.854Z,6.10
2019-05-20T04:25:38.249Z,6.13
2019-05-20T04:28:06.738Z,5.43
2019-05-20T04:30:35.163Z,6.13
2019-05-20T04:33:03.623Z,6.07
2019-05-20T04:35:32.004Z,6.10
2019-05-20T04:38:00.428Z,6.33
2019-05-20T04:40:28.851Z,6.37
2019-05-20T04:42:57.266Z,6.13
2019-05-20T04:45:25.691Z,5.90
2019-05-20T04:47:54.109Z,6.13
2019-05-20T04:50:22.521Z,5.30
2019-05-20T04:52:50.993Z,7.03
2019-05-20T04:55:19.420Z,5.27
2019-05-20T04:57:47.903Z,5.50
2019-05-20T05:00:19.422Z,4.73
2019-05-20T05:02:47.839Z,5.43
2019-05-20T05:05:16.321Z,5.03
2019-05-20T05:07:44.800Z,5.07
2019-05-20T05:10:13.668Z,5.37
2019-05-20T05:12:42.094Z,5.07
2019-05-20T05:15:12.048Z,5.33
2019-05-20T05:17:40.474Z,5.30
2019-05-20T05:20:17.534Z,5.90
2019-05-20T05:22:39.425Z,5.27
2019-05-20T05:25:07.987Z,4.60
2019-05-20T05:27:36.600Z,5.47
2019-05-20T05:30:07.934Z,5.40
2019-05-20T05:32:44.733Z,5.20
2019-05-20T05:35:16.968Z,5.07
2019-05-20T05:37:45.769Z,5.20
2019-05-20T05:40:15.330Z,4.67
2019-05-20T05:42:43.765Z,5.20
2019-05-20T05:45:12.320Z,4.80
2019-05-20T05:47:40.719Z,4.23
2019-05-20T05:50:09.770Z,4.67
2019-05-20T05:52:38.323Z,4.43
2019-05-20T05:55:07.073Z,5.10
2019-05-20T05:57:36.279Z,4.53
2019-05-20T06:00:07.580Z,5.07
2019-05-20T06:02:36.008Z,4.67
2019-05-20T06:05:05.683Z,4.90
2019-05-20T06:07:34.106Z,4.03
2019-05-20T06:10:02.536Z,4.00
2019-05-20T06:12:30.948Z,4.40
2019-05-20T06:14:59.394Z,4.10
2019-05-20T06:17:27.876Z,5.60
2019-05-20T06:19:56.296Z,4.07
2019-05-20T06:22:24.720Z,4.67
2019-05-20T06:24:53.122Z,4.13
2019-05-20T06:27:21.567Z,4.80
2019-05-20T06:29:49.984Z,8.70
2019-05-20T06:32:18.403Z,4.77
2019-05-20T06:34:46.823Z,4.33
2019-05-20T06:37:25.590Z,4.60
2019-05-20T06:39:54.006Z,4.40
2019-05-20T06:42:22.521Z,4.40
2019-05-20T06:44:53.923Z,4.60
2019-05-20T06:47:21.080Z,5.33
2019-05-20T06:49:49.493Z,4.77
2019-05-20T06:52:33.244Z,4.63
2019-05-20T06:54:48.061Z,4.87
2019-05-20T06:57:16.485Z,4.50
2019-05-20T06:59:45.844Z,5.30
2019-05-20T07:02:14.389Z,4.60
2019-05-20T07:04:42.807Z,4.60
2019-05-20T07:07:20.502Z,4.60
2019-05-20T07:09:41.376Z,5.40
2019-05-20T07:12:09.804Z,4.70
2019-05-20T07:14:38.230Z,4.13
2019-05-20T07:17:06.642Z,4.80
2019-05-20T07:19:35.082Z,4.73
2019-05-20T07:22:03.514Z,4.47
2019-05-20T07:24:32.027Z,4.17
2019-05-20T07:27:01.401Z,4.10
2019-05-20T07:29:29.851Z,4.43
2019-05-20T07:31:58.295Z,4.60
2019-05-20T07:34:26.708Z,5.00
2019-05-20T07:37:03.312Z,4.87
2019-05-20T07:39:25.334Z,4.43
2019-05-20T07:41:53.795Z,4.37
2019-05-20T07:44:22.254Z,5.20
2019-05-20T07:46:51.008Z,4.73
2019-05-20T07:49:19.963Z,4.40
2019-05-20T07:51:49.201Z,4.63
2019-05-20T07:54:18.961Z,4.87
2019-05-20T07:56:49.592Z,4.60
2019-05-20T07:59:21.219Z,5.10
2019-05-20T08:01:49.647Z,4.80
2019-05-20T08:04:18.149Z,5.00
2019-05-20T08:06:46.751Z,4.47
2019-05-20T08:09:15.173Z,4.80
2019-05-20T08:11:43.591Z,4.57
2019-05-20T08:14:12.000Z,4.80
2019-05-20T08:16:40.507Z,4.93
2019-05-20T08:19:08.971Z,4.70
2019-05-20T08:21:37.369Z,4.77
2019-05-20T08:24:05.842Z,4.50
2019-05-20T08:26:34.351Z,4.50
2019-05-20T08:29:02.864Z,4.57
2019-05-20T08:31:31.367Z,4.73
2019-05-20T08:33:59.766Z,4.53
2019-05-20T08:36:28.219Z,5.23
2019-05-20T08:38:56.623Z,5.27
2019-05-20T08:41:25.157Z,6.03
2019-05-20T08:43:53.658Z,14.63
2019-05-20T08:46:22.110Z,6.57
2019-05-20T08:48:50.840Z,9.50
2019-05-20T08:51:19.463Z,4.97
2019-05-20T08:53:47.905Z,5.00
2019-05-20T08:56:16.437Z,4.27
2019-05-20T08:58:44.855Z,4.33
2019-05-20T09:01:13.274Z,4.20
2019-05-20T09:03:41.760Z,4.60
2019-05-20T09:06:10.235Z,4.07
2019-05-20T09:08:38.762Z,3.70
2019-05-20T09:11:07.183Z,4.23
2019-05-20T09:13:35.680Z,4.90
2019-05-20T09:16:04.642Z,4.73
2019-05-20T09:18:33.249Z,4.57
2019-05-20T09:21:01.665Z,4.57
2019-05-20T09:23:30.082Z,3.40
2019-05-20T09:25:58.499Z,4.20
2019-05-20T09:28:26.933Z,3.87
2019-05-20T09:30:55.626Z,3.97
2019-05-20T09:33:24.894Z,4.40
2019-05-20T09:35:53.321Z,5.60
2019-05-20T09:38:21.746Z,4.40
2019-05-20T09:40:50.328Z,4.87
2019-05-20T09:43:18.818Z,3.93
2019-05-20T09:45:47.359Z,4.63
2019-05-20T09:48:16.066Z,5.43
2019-05-20T09:50:44.623Z,4.27
2019-05-20T09:53:13.280Z,4.57
2019-05-20T09:55:41.949Z,5.57
2019-05-20T09:58:10.680Z,4.63
2019-05-20T10:00:39.312Z,6.83
2019-05-20T10:03:07.985Z,4.40
2019-05-20T10:05:37.530Z,5.40
2019-05-20T10:08:06.654Z,4.30
2019-05-20T10:10:35.265Z,5.90
2019-05-20T10:13:04.200Z,5.40
2019-05-20T10:15:33.014Z,5.33
2019-05-20T10:18:01.672Z,5.93
2019-05-20T10:20:30.431Z,5.63
2019-05-20T10:22:59.103Z,4.60
2019-05-20T10:25:27.744Z,5.20
2019-05-20T10:27:57.649Z,5.03
2019-05-20T10:30:26.605Z,4.80
2019-05-20T10:32:55.202Z,5.97
2019-05-20T10:35:23.794Z,7.00
2019-05-20T10:37:52.371Z,5.53
2019-05-20T10:40:21.167Z,6.17
2019-05-20T10:42:49.745Z,5.27
2019-05-20T10:45:18.729Z,5.53
2019-05-20T10:47:47.530Z,5.23
2019-05-20T10:50:16.347Z,5.07
2019-05-20T10:52:44.867Z,5.03
2019-05-20T10:55:13.641Z,5.33
2019-05-20T10:57:42.198Z,5.37
2019-05-20T11:00:12.410Z,4.90
2019-05-20T11:02:40.915Z,5.57
2019-05-20T11:05:09.706Z,5.93
2019-05-20T11:07:38.289Z,12.40
2019-05-20T11:10:07.767Z,5.10
2019-05-20T11:12:36.476Z,7.20
2019-05-20T11:15:08.190Z,4.90
2019-05-20T11:17:36.881Z,6.23
2019-05-20T11:20:07.579Z,5.80
2019-05-20T11:22:36.074Z,6.47
2019-05-20T11:25:07.384Z,6.07
2019-05-20T11:27:35.960Z,5.33
2019-05-20T11:30:06.640Z,6.13
2019-05-20T11:32:35.110Z,6.50
2019-05-20T11:35:05.613Z,5.40
2019-05-20T11:37:34.176Z,6.30
2019-05-20T11:40:04.399Z,6.70
2019-05-20T11:42:33.313Z,6.13
2019-05-20T11:45:01.859Z,6.70
2019-05-20T11:47:30.437Z,7.40
2019-05-20T11:49:58.987Z,7.03
2019-05-20T11:52:27.794Z,7.40
2019-05-20T11:54:56.345Z,8.50
2019-05-20T11:57:25.147Z,7.43
2019-05-20T11:59:53.675Z,9.00
2019-05-20T12:02:22.299Z,7.57
2019-05-20T12:04:50.910Z,9.20
2019-05-20T12:07:19.438Z,10.13
2019-05-20T12:09:50.007Z,8.10
2019-05-20T12:12:18.269Z,8.17
2019-05-20T12:14:46.882Z,10.03
2019-05-20T12:17:15.426Z,9.37
2019-05-20T12:19:43.999Z,8.30
2019-05-20T12:22:12.592Z,7.23
2019-05-20T12:24:41.198Z,8.33
2019-05-20T12:27:09.768Z,10.47
2019-05-20T12:29:38.542Z,10.37
2019-05-20T12:32:07.353Z,10.90
2019-05-20T12:34:35.885Z,10.80
2019-05-20T12:37:04.523Z,8.43
2019-05-20T12:39:33.143Z,8.40
2019-05-20T12:42:01.765Z,11.00
2019-05-20T12:44:30.329Z,9.43
2019-05-20T12:46:58.837Z,8.10
2019-05-20T12:49:27.374Z,10.60
2019-05-20T12:51:56.038Z,11.67
2019-05-20T12:54:24.641Z,10.73
2019-05-20T12:56:53.350Z,15.37
2019-05-20T12:59:21.861Z,12.23
2019-05-20T13:01:50.617Z,15.73
2019-05-20T13:04:19.125Z,10.33
2019-05-20T13:06:47.648Z,7.50
2019-05-20T13:09:16.323Z,9.43
2019-05-20T13:11:44.866Z,10.63
2019-05-20T13:14:13.371Z,9.67
2019-05-20T13:16:41.855Z,13.00
2019-05-20T13:19:10.464Z,9.50
2019-05-20T13:21:39.096Z,7.67
2019-05-20T13:24:07.663Z,9.43
2019-05-20T13:26:36.373Z,13.73
2019-05-20T13:29:05.071Z,11.80
2019-05-20T13:31:33.690Z,10.40
2019-05-20T13:34:02.315Z,8.17
2019-05-20T13:36:30.867Z,9.07
2019-05-20T13:38:59.499Z,8.60
2019-05-20T13:41:28.022Z,8.00
2019-05-20T13:43:56.536Z,8.17
2019-05-20T13:46:25.031Z,8.40
2019-05-20T13:48:53.650Z,9.50
2019-05-20T13:51:22.205Z,10.40
2019-05-20T13:53:50.733Z,11.53
2019-05-20T13:56:19.252Z,10.30
2019-05-20T13:58:47.923Z,7.80
2019-05-20T14:01:16.770Z,16.30
2019-05-20T14:03:45.352Z,12.73
2019-05-20T14:06:15.476Z,8.37
2019-05-20T14:08:44.042Z,7.57
2019-05-20T14:11:12.778Z,10.33
2019-05-20T14:13:41.374Z,9.73
2019-05-20T14:16:10.084Z,8.33
2019-05-20T14:18:38.686Z,11.83
2019-05-20T14:21:07.254Z,11.60
2019-05-20T14:23:35.770Z,12.00
2019-05-20T14:26:04.488Z,14.00
2019-05-20T14:28:33.294Z,9.33
2019-05-20T14:31:05.804Z,10.10
2019-05-20T14:33:32.560Z,14.03
2019-05-20T14:36:01.247Z,13.57
2019-05-20T14:38:29.973Z,10.07
2019-05-20T14:40:58.692Z,12.27
2019-05-20T14:43:27.463Z,12.10
2019-05-20T14:45:56.421Z,11.70
2019-05-20T14:48:37.075Z,13.20
2019-05-20T14:51:09.320Z,11.87
2019-05-20T14:53:52.755Z,14.80
2019-05-20T14:56:22.896Z,15.40
2019-05-20T14:58:51.994Z,10.53
2019-05-20T15:01:21.661Z,14.77
2019-05-20T15:03:50.940Z,17.37
2019-05-20T15:06:22.629Z,15.83
2019-05-20T15:08:52.457Z,13.53
2019-05-20T15:11:36.828Z,15.20
2019-05-20T15:13:51.691Z,13.07
2019-05-20T15:16:20.310Z,12.60
2019-05-20T15:18:48.843Z,21.73
2019-05-20T15:21:17.543Z,15.40
2019-05-20T15:23:46.059Z,12.10
2019-05-20T15:26:14.710Z,12.37
2019-05-20T15:28:43.195Z,15.00
2019-05-20T15:31:11.974Z,12.93
2019-05-20T15:33:40.433Z,12.10
2019-05-20T15:36:09.081Z,12.83
2019-05-20T15:38:37.721Z,16.50
2019-05-20T15:41:06.358Z,16.07
2019-05-20T15:43:34.943Z,14.27
2019-05-20T15:46:03.571Z,12.90
2019-05-20T15:48:32.048Z,12.43
2019-05-20T15:51:00.732Z,12.63
2019-05-20T15:53:29.392Z,11.23
2019-05-20T15:55:58.016Z,12.83
2019-05-20T15:58:26.546Z,16.50
2019-05-20T16:00:55.107Z,12.50
2019-05-20T16:03:23.672Z,14.83
2019-05-20T16:05:52.234Z,12.40
2019-05-20T16:08:20.802Z,12.83
2019-05-20T16:10:49.400Z,11.83
2019-05-20T16:13:18.185Z,15.20
2019-05-20T16:15:46.758Z,11.40
2019-05-20T16:18:15.346Z,11.77
2019-05-20T16:20:44.167Z,9.03
2019-05-20T16:23:12.818Z,15.53
2019-05-20T16:25:41.524Z,17.37
2019-05-20T16:28:10.140Z,11.90
2019-05-20T16:30:38.816Z,12.57
2019-05-20T16:33:07.460Z,10.90
2019-05-20T16:35:36.089Z,19.00
2019-05-20T16:38:04.628Z,14.17
2019-05-20T16:40:33.214Z,12.90
2019-05-20T16:43:01.915Z,14.90
2019-05-20T16:45:30.509Z,14.33
2019-05-20T16:47:59.187Z,16.40
2019-05-20T16:50:27.695Z,22.00
2019-05-20T16:52:56.131Z,14.03
2019-05-20T16:55:24.637Z,14.50
2019-05-20T16:57:53.140Z,15.67
2019-05-20T17:00:31.627Z,11.57
2019-05-20T17:02:51.843Z,14.20
2019-05-20T17:05:20.259Z,13.47
2019-05-20T17:07:48.686Z,17.67
2019-05-20T17:10:17.754Z,16.50
2019-05-20T17:12:46.253Z,14.60
2019-05-20T17:15:14.898Z,13.03
2019-05-20T17:17:43.418Z,24.90
2019-05-20T17:20:11.937Z,17.23
2019-05-20T17:22:40.433Z,18.97
2019-05-20T17:25:09.000Z,15.57
2019-05-20T17:27:37.639Z,13.17
2019-05-20T17:30:07.392Z,12.90
2019-05-20T17:32:35.843Z,14.20
2019-05-20T17:35:05.024Z,13.30
2019-05-20T17:37:33.471Z,15.37
2019-05-20T17:40:01.972Z,17.60
2019-05-20T17:42:30.569Z,14.23
2019-05-20T17:44:59.257Z,16.30
2019-05-20T17:47:27.775Z,14.67
2019-05-20T17:49:56.474Z,13.47
2019-05-20T17:52:24.972Z,14.00
2019-05-20T17:54:53.405Z,12.97
2019-05-20T17:57:21.898Z,11.37
2019-05-20T17:59:50.402Z,15.03
2019-05-20T18:02:18.987Z,14.37
2019-05-20T18:04:47.532Z,15.00
2019-05-20T18:07:16.331Z,16.37
2019-05-20T18:09:46.401Z,10.53
2019-05-20T18:12:14.823Z,14.70
2019-05-20T18:14:44.959Z,18.03
2019-05-20T18:17:13.461Z,15.07
2019-05-20T18:19:41.902Z,13.20
2019-05-20T18:22:10.337Z,15.77
2019-05-20T18:24:39.891Z,10.40
2019-05-20T18:27:08.415Z,12.90
2019-05-20T18:29:37.972Z,13.97
2019-05-20T18:32:06.478Z,15.40
2019-05-20T18:34:35.076Z,11.57
2019-05-20T18:37:03.910Z,10.60
2019-05-20T18:39:32.522Z,9.90
2019-05-20T18:42:00.948Z,10.93
2019-05-20T18:44:29.379Z,11.50
2019-05-20T18:46:57.914Z,10.80
2019-05-20T18:49:26.415Z,7.50
2019-05-20T18:51:54.854Z,8.97
2019-05-20T18:54:23.276Z,17.17
2019-05-20T18:56:51.874Z,14.07
2019-05-20T18:59:20.462Z,12.90
2019-05-20T19:02:03.795Z,9.80
2019-05-20T19:04:21.200Z,14.30
2019-05-20T19:06:49.929Z,9.73
2019-05-20T19:09:21.720Z,9.77
2019-05-20T19:11:50.356Z,14.40
2019-05-20T19:17:16.834Z,13.07
2019-05-20T19:19:52.110Z,17.13
2019-05-20T19:22:21.038Z,12.90
2019-05-20T19:24:49.643Z,14.87
2019-05-20T19:27:18.202Z,10.07
2019-05-20T19:29:46.625Z,12.03
2019-05-20T19:32:16.927Z,9.17
2019-05-20T19:34:47.233Z,10.20
2019-05-20T19:37:15.687Z,12.10
2019-05-20T19:39:44.105Z,7.73
2019-05-20T19:42:12.540Z,6.30
2019-05-20T19:44:42.913Z,6.70
2019-05-20T19:47:11.366Z,7.87
2019-05-20T19:49:42.456Z,10.97
2019-05-20T19:52:10.084Z,8.97
2019-05-20T19:54:38.520Z,11.37
2019-05-20T19:57:06.954Z,6.47
2019-05-20T19:59:35.362Z,8.20
2019-05-20T20:02:16.473Z,10.33
2019-05-20T20:04:34.046Z,10.97
2019-05-20T20:07:02.471Z,11.37
2019-05-20T20:09:30.891Z,8.37
2019-05-20T20:11:59.356Z,9.13
2019-05-20T20:14:27.866Z,6.67
2019-05-20T20:16:56.294Z,6.23
2019-05-20T20:19:25.628Z,8.70
2019-05-20T20:21:54.041Z,11.40
2019-05-20T20:24:22.529Z,10.80
2019-05-20T20:26:50.956Z,12.30
2019-05-20T20:29:19.382Z,13.47
2019-05-20T20:31:47.794Z,19.10
2019-05-20T20:34:16.223Z,9.67
2019-05-20T20:36:44.711Z,10.80
2019-05-20T20:39:13.147Z,14.33
2019-05-20T20:41:41.566Z,11.00
2019-05-20T20:44:10.011Z,11.73
2019-05-20T20:46:40.522Z,12.00
2019-05-20T20:49:08.579Z,17.77
2019-05-20T20:51:36.993Z,10.60
2019-05-20T20:54:05.480Z,9.33
2019-05-20T20:56:34.394Z,11.83
2019-05-20T20:59:02.987Z,7.63
2019-05-20T21:01:32.258Z,10.10
2019-05-20T21:04:00.682Z,9.17
2019-05-20T21:06:29.119Z,6.67
2019-05-20T21:09:06.986Z,11.80
2019-05-20T21:11:35.422Z,10.10
2019-05-20T21:14:03.919Z,9.20
2019-05-20T21:16:32.643Z,10.23
2019-05-20T21:19:01.087Z,8.30
2019-05-20T21:21:29.894Z,8.97
2019-05-20T21:23:58.297Z,9.63
2019-05-20T21:26:26.714Z,10.67
2019-05-20T21:28:55.163Z,10.60
2019-05-20T21:31:23.589Z,8.87
2019-05-20T21:33:52.103Z,12.87
2019-05-20T21:36:20.513Z,9.10
2019-05-20T21:38:48.966Z,8.40
2019-05-20T21:41:17.373Z,12.67
2019-05-20T21:43:45.773Z,9.17
2019-05-20T21:46:14.221Z,9.27
2019-05-20T21:48:42.719Z,9.03
2019-05-20T21:51:11.138Z,9.00
2019-05-20T21:53:39.575Z,10.03
2019-05-20T21:56:07.990Z,8.30
2019-05-20T21:58:36.420Z,6.87
2019-05-20T22:01:04.837Z,8.10
2019-05-20T22:03:33.227Z,7.40
2019-05-20T22:06:01.742Z,8.10
2019-05-20T22:08:31.062Z,9.00
2019-05-20T22:10:59.476Z,6.83
2019-05-20T22:13:27.904Z,10.30
2019-05-20T22:15:56.339Z,6.70
2019-05-20T22:18:26.725Z,6.90
2019-05-20T22:20:55.180Z,8.73
2019-05-20T22:23:25.219Z,13.50
2019-05-20T22:25:53.677Z,8.33
2019-05-20T22:28:22.099Z,6.60
2019-05-20T22:30:50.520Z,7.43
2019-05-20T22:33:18.947Z,6.70
2019-05-20T22:35:47.383Z,7.47
2019-05-20T22:38:16.271Z,8.57
2019-05-20T22:40:44.858Z,8.67
2019-05-20T22:43:13.283Z,8.50
2019-05-20T22:45:41.700Z,10.53
2019-05-20T22:48:10.214Z,12.10
2019-05-20T22:50:38.633Z,8.27
2019-05-20T22:53:07.087Z,8.33
2019-05-20T22:55:35.503Z,9.07
2019-05-20T22:58:03.944Z,13.10
2019-05-20T23:00:32.369Z,9.47
2019-05-20T23:03:00.790Z,7.53
2019-05-20T23:05:29.216Z,5.63
2019-05-20T23:07:57.632Z,8.23
2019-05-20T23:10:26.056Z,9.87
2019-05-20T23:12:54.486Z,11.33
2019-05-20T23:15:22.917Z,9.57
2019-05-20T23:17:51.347Z,8.47
2019-05-20T23:20:19.775Z,7.17
2019-05-20T23:22:48.205Z,7.73
2019-05-20T23:25:16.629Z,13.10
2019-05-20T23:27:45.051Z,8.10
2019-05-20T23:30:13.817Z,7.60
2019-05-20T23:32:42.216Z,9.87
2019-05-20T23:35:10.692Z,6.73
2019-05-20T23:37:39.121Z,10.03
2019-05-20T23:40:07.894Z,11.97
2019-05-20T23:42:36.385Z,9.17
2019-05-20T23:45:09.020Z,7.13
2019-05-20T23:47:37.438Z,6.63
2019-05-20T23:50:06.108Z,7.17
2019-05-20T23:52:34.506Z,7.23
2019-05-20T23:55:03.011Z,7.00
2019-05-20T23:57:31.509Z,9.90
2019-05-20T23:59:59.933Z,8.40
